Time;durP1;ratioP1;P1;durP2;ratioP2;P2;SDS_P1;SDS_P2;PMS_P1;PMS_P2;Temp;Humidity;BMP_temperature;BMP_pressure;BME280_temperature;BME280_humidity;BME280_pressure;Samples;Min_cycle;Max_cycle;Signal;HPM_P1;HPM_P2
2022/08/24 00:00:12;;;;;;;1.30;1.30;;;22.60;34.00;;;;;;5052800;28;20852;-73
2022/08/24 00:02:38;;;;;;;1.30;1.30;;;22.40;34.10;;;;;;5050751;28;20442;-73
2022/08/24 00:05:04;;;;;;;1.30;1.20;;;22.40;35.10;;;;;;5052126;28;20423;-73
2022/08/24 00:07:30;;;;;;;1.30;1.10;;;22.30;34.40;;;;;;5053969;28;20210;-73
2022/08/24 00:09:57;;;;;;;1.30;1.20;;;22.00;34.90;;;;;;5053789;28;20470;-73
2022/08/24 00:12:22;;;;;;;1.30;1.27;;;22.10;34.10;;;;;;5052357;28;20419;-73
2022/08/24 00:14:48;;;;;;;1.30;1.20;;;22.00;34.30;;;;;;5052121;28;20518;-73
2022/08/24 00:17:14;;;;;;;1.30;1.30;;;22.10;35.20;;;;;;5053682;28;20419;-73
2022/08/24 00:19:41;;;;;;;1.30;1.20;;;22.20;35.80;;;;;;5053683;28;20241;-73
2022/08/24 00:22:06;;;;;;;1.30;1.20;;;22.30;35.20;;;;;;5052446;28;20446;-73
2022/08/24 00:24:32;;;;;;;1.30;1.30;;;22.30;34.80;;;;;;5052323;28;20430;-73
2022/08/24 00:26:58;;;;;;;1.30;1.10;;;22.20;34.40;;;;;;5053459;28;20204;-73
2022/08/24 00:29:24;;;;;;;1.30;1.30;;;22.20;35.00;;;;;;5052596;28;20547;-73
2022/08/24 00:31:50;;;;;;;1.30;1.30;;;22.10;35.20;;;;;;5052974;28;20902;-73
2022/08/24 00:34:16;;;;;;;1.30;1.20;;;22.10;35.50;;;;;;5052595;28;20796;-73
2022/08/24 00:36:43;;;;;;;1.30;1.30;;;22.10;35.00;;;;;;5053253;28;20622;-73
2022/08/24 00:39:12;;;;;;;1.30;1.20;;;22.00;35.10;;;;;;5052988;28;20418;-73
2022/08/24 00:41:44;;;;;;;1.30;1.30;;;21.90;35.70;;;;;;5052621;28;20447;-73
2022/08/24 00:44:10;;;;;;;1.30;1.20;;;24.80;38.80;;;;;;5051759;28;20446;-73
2022/08/24 00:46:51;;;;;;;1.37;1.30;;;21.70;36.00;;;;;;5052611;28;20466;-73
2022/08/24 00:49:32;;;;;;;1.40;1.30;;;21.60;37.50;;;;;;5053607;28;20418;-73
2022/08/24 00:52:11;;;;;;;1.40;1.30;;;21.70;36.30;;;;;;5052074;28;20578;-73
2022/08/24 00:54:42;;;;;;;1.40;1.33;;;21.70;35.60;;;;;;5045066;28;20430;-73
2022/08/24 00:57:10;;;;;;;1.30;1.20;;;21.50;35.90;;;;;;5053056;28;20421;-73
2022/08/24 00:59:42;;;;;;;1.50;1.40;;;21.70;36.70;;;;;;5052818;28;20448;-73
2022/08/24 01:02:16;;;;;;;1.30;1.20;;;21.50;36.20;;;;;;5052320;28;20399;-73
2022/08/24 01:04:53;;;;;;;1.30;1.30;;;21.50;36.70;;;;;;5052819;28;20398;-73
2022/08/24 01:07:21;;;;;;;1.30;1.20;;;21.50;37.70;;;;;;5051629;28;20465;-73
2022/08/24 01:09:49;;;;;;;1.30;1.20;;;21.70;36.20;;;;;;5051960;28;20507;-73
2022/08/24 01:12:16;;;;;;;1.30;1.27;;;21.70;36.70;;;;;;5051829;28;20431;-73
2022/08/24 01:14:42;;;;;;;1.50;1.40;;;21.70;35.70;;;;;;5051181;28;20429;-73
2022/08/24 01:19:55;;;;;;;1.30;1.30;;;21.70;37.40;;;;;;5051969;28;21026;-73
2022/08/24 01:22:44;;;;;;;1.30;1.20;;;21.70;36.50;;;;;;5051875;28;20417;-73
2022/08/24 01:25:10;;;;;;;1.30;1.20;;;21.60;36.80;;;;;;5051790;28;20428;-73
2022/08/24 01:27:38;;;;;;;1.30;1.20;;;21.80;35.90;;;;;;5051101;28;20469;-73
2022/08/24 01:30:08;;;;;;;1.30;1.20;;;21.90;35.00;;;;;;5052045;28;20756;-73
2022/08/24 01:32:34;;;;;;;1.30;1.27;;;21.70;35.50;;;;;;5051540;28;20445;-73
2022/08/24 01:35:00;;;;;;;1.30;1.30;;;21.60;36.80;;;;;;5052018;28;20420;-73
2022/08/24 01:37:26;;;;;;;1.30;1.30;;;21.50;37.00;;;;;;5036602;28;20854;-73
2022/08/24 01:39:55;;;;;;;1.30;1.30;;;21.40;36.90;;;;;;5050967;28;20705;-73
2022/08/24 01:42:20;;;;;;;1.30;1.10;;;21.30;36.80;;;;;;5051738;28;20186;-73
2022/08/24 01:44:47;;;;;;;1.30;1.20;;;21.20;37.40;;;;;;5050867;28;20402;-73
2022/08/24 01:47:14;;;;;;;1.30;1.20;;;21.30;38.20;;;;;;5048968;28;20684;-73
2022/08/24 01:49:43;;;;;;;1.30;1.30;;;21.30;37.10;;;;;;5051284;28;20429;-73
2022/08/24 01:52:11;;;;;;;1.30;1.27;;;21.20;37.90;;;;;;5051342;28;20408;-73
2022/08/24 01:54:38;;;;;;;1.30;1.30;;;21.20;37.60;;;;;;5048755;28;20936;-73
2022/08/24 01:57:04;;;;;;;1.47;1.40;;;21.20;37.20;;;;;;5047901;28;20810;-73
2022/08/24 01:59:30;;;;;;;1.30;1.10;;;21.20;37.50;;;;;;5050193;28;20448;-73
2022/08/24 02:02:00;;;;;;;1.30;1.20;;;21.20;38.30;;;;;;5051118;28;20416;-73
2022/08/24 02:04:26;;;;;;;1.30;1.20;;;21.10;37.70;;;;;;5051299;28;20224;-73
2022/08/24 02:06:53;;;;;;;1.30;1.20;;;21.10;38.40;;;;;;5050829;28;20875;-73
2022/08/24 02:09:18;;;;;;;1.30;1.20;;;21.10;38.30;;;;;;5050938;28;20182;-73
2022/08/24 02:11:44;;;;;;;1.30;1.13;;;20.90;38.90;;;;;;5050588;28;20475;-73
2022/08/24 02:14:10;;;;;;;1.30;1.17;;;20.90;38.70;;;;;;5050378;28;20177;-73
2022/08/24 02:16:35;;;;;;;1.30;1.20;;;20.90;39.00;;;;;;5050383;28;20185;-73
2022/08/24 02:19:01;;;;;;;1.30;1.30;;;20.70;38.80;;;;;;5051485;28;20206;-73
2022/08/24 02:21:26;;;;;;;1.30;1.20;;;20.80;39.90;;;;;;5051025;28;20220;-73
2022/08/24 02:23:52;;;;;;;1.30;1.20;;;20.80;39.30;;;;;;5049971;28;20182;-73
2022/08/24 02:26:18;;;;;;;1.30;1.20;;;20.90;40.20;;;;;;5051393;28;20457;-73
2022/08/24 02:28:43;;;;;;;1.30;1.20;;;20.80;38.60;;;;;;5049899;28;20268;-73
2022/08/24 02:31:12;;;;;;;1.30;1.20;;;20.70;38.80;;;;;;5050234;28;20209;-73
2022/08/24 02:33:38;;;;;;;1.30;1.17;;;20.70;38.80;;;;;;5050042;28;20183;-73
2022/08/24 02:36:05;;;;;;;1.30;1.30;;;20.70;40.20;;;;;;5050476;28;20439;-73
2022/08/24 02:38:31;;;;;;;1.30;1.30;;;20.60;39.40;;;;;;5051323;28;20979;-73
2022/08/24 02:40:57;;;;;;;1.30;1.20;;;20.60;39.60;;;;;;5049407;28;20591;-73
2022/08/24 02:43:23;;;;;;;1.30;1.17;;;20.60;39.60;;;;;;5051081;28;20280;-73
2022/08/24 02:45:49;;;;;;;1.30;1.10;;;20.70;40.50;;;;;;5049779;28;20433;-73
2022/08/24 02:48:15;;;;;;;1.30;1.20;;;20.60;39.70;;;;;;5051162;28;20413;-73
2022/08/24 02:50:46;;;;;;;1.30;1.13;;;20.50;39.70;;;;;;5050950;28;20426;-73
2022/08/24 02:53:14;;;;;;;1.30;1.30;;;20.50;40.10;;;;;;5048730;28;20787;-73
2022/08/24 02:55:41;;;;;;;1.30;1.20;;;20.50;40.00;;;;;;5043806;28;20429;-73
2022/08/24 02:58:09;;;;;;;1.30;1.10;;;20.70;40.00;;;;;;5051124;28;20416;-73
2022/08/24 03:00:37;;;;;;;1.30;1.13;;;20.70;38.70;;;;;;5050846;28;20501;-73
2022/08/24 03:03:03;;;;;;;1.30;1.27;;;20.70;39.50;;;;;;5050561;28;20420;-73
2022/08/24 03:05:29;;;;;;;1.30;1.30;;;20.60;40.50;;;;;;5051508;28;20948;-73
2022/08/24 03:07:56;;;;;;;1.30;1.10;;;20.60;39.20;;;;;;5054624;28;20467;-73
2022/08/24 03:10:22;;;;;;;1.30;1.30;;;20.50;40.10;;;;;;5054719;28;20428;-73
2022/08/24 03:12:49;;;;;;;1.37;1.33;;;20.60;39.50;;;;;;5053280;28;20431;-73
2022/08/24 03:15:16;;;;;;;1.30;1.20;;;20.50;39.80;;;;;;5054496;28;20499;-73
2022/08/24 03:17:42;;;;;;;1.30;1.10;;;20.20;40.50;;;;;;5054281;28;20642;-73
2022/08/24 03:20:12;;;;;;;1.30;1.20;;;20.30;40.10;;;;;;5054757;28;20575;-73
2022/08/24 03:22:39;;;;;;;1.30;1.10;;;20.30;40.50;;;;;;5054197;28;20421;-73
2022/08/24 03:25:06;;;;;;;1.30;1.13;;;20.20;40.80;;;;;;5054519;28;20415;-73
2022/08/24 03:27:31;;;;;;;1.30;1.13;;;20.00;41.70;;;;;;5053285;28;20466;-73
2022/08/24 03:29:57;;;;;;;1.30;1.20;;;20.20;42.60;;;;;;5054211;28;20806;-73
2022/08/24 03:32:23;;;;;;;1.30;1.20;;;20.10;42.70;;;;;;5054058;28;20173;-73
2022/08/24 03:34:48;;;;;;;1.30;1.17;;;20.20;41.80;;;;;;5054373;28;20589;-73
2022/08/24 03:37:15;;;;;;;1.30;1.13;;;20.10;40.90;;;;;;5053138;28;20189;-73
2022/08/24 03:39:41;;;;;;;1.30;1.10;;;20.00;41.20;;;;;;5054200;28;20193;-73
2022/08/24 03:42:06;;;;;;;1.30;1.17;;;19.80;41.50;;;;;;5052913;28;20442;-73
2022/08/24 03:44:32;;;;;;;1.30;1.30;;;19.80;41.50;;;;;;5053838;28;20434;-73
2022/08/24 03:46:58;;;;;;;1.30;1.20;;;19.80;41.50;;;;;;5053127;28;20225;-73
2022/08/24 03:49:23;;;;;;;1.30;1.30;;;19.90;40.80;;;;;;5053078;28;20191;-73
2022/08/24 03:51:49;;;;;;;1.30;1.10;;;20.00;41.60;;;;;;5053494;28;20173;-73
2022/08/24 03:54:15;;;;;;;1.40;1.30;;;19.90;41.50;;;;;;5053973;28;20198;-73
2022/08/24 03:56:41;;;;;;;1.30;1.20;;;19.80;41.30;;;;;;5053988;28;20664;-73
2022/08/24 03:59:09;;;;;;;1.30;1.20;;;19.90;42.30;;;;;;5052630;28;20431;-73
2022/08/24 04:01:35;;;;;;;1.30;1.13;;;19.70;41.40;;;;;;5053172;28;20478;-73
2022/08/24 04:04:01;;;;;;;1.30;1.20;;;19.80;41.50;;;;;;5053628;28;20421;-73
2022/08/24 04:06:27;;;;;;;1.30;1.20;;;19.80;41.50;;;;;;5052737;28;20455;-73
2022/08/24 04:08:53;;;;;;;1.30;1.20;;;19.70;41.90;;;;;;5052764;28;20923;-73
2022/08/24 04:11:22;;;;;;;1.30;1.30;;;19.80;41.90;;;;;;5051494;28;20576;-73
2022/08/24 04:13:50;;;;;;;1.30;1.20;;;19.80;41.90;;;;;;5053193;28;20414;-73
2022/08/24 04:16:18;;;;;;;1.30;1.20;;;19.70;42.70;;;;;;5053505;28;20410;-73
2022/08/24 04:18:45;;;;;;;1.30;1.20;;;19.70;42.10;;;;;;5053080;28;20423;-74
2022/08/24 04:21:28;;;;;;;1.30;1.30;;;19.70;42.70;;;;;;5052025;28;20463;-73
2022/08/24 04:23:55;;;;;;;1.30;1.20;;;19.60;42.70;;;;;;5052449;28;20436;-73
2022/08/24 04:26:23;;;;;;;1.30;1.10;;;19.60;42.90;;;;;;5053079;28;20538;-73
2022/08/24 04:28:50;;;;;;;1.30;1.20;;;19.60;42.30;;;;;;5053483;28;20787;-73
2022/08/24 04:31:17;;;;;;;1.30;1.20;;;19.70;41.60;;;;;;5051502;28;20475;-73
2022/08/24 04:33:45;;;;;;;1.30;1.13;;;19.70;42.40;;;;;;5052925;28;20461;-73
2022/08/24 04:36:12;;;;;;;1.33;1.30;;;19.80;43.10;;;;;;5053064;28;20778;-73
2022/08/24 04:38:38;;;;;;;1.30;1.30;;;19.70;42.50;;;;;;5053246;28;20412;-73
2022/08/24 04:41:06;;;;;;;1.50;1.40;;;19.60;41.90;;;;;;5052071;28;20463;-73
2022/08/24 04:43:32;;;;;;;1.30;1.20;;;19.50;41.20;;;;;;5052938;28;20410;-73
2022/08/24 04:45:57;;;;;;;1.30;1.20;;;19.30;42.60;;;;;;5051903;28;20866;-73
2022/08/24 04:48:23;;;;;;;1.30;1.13;;;19.30;43.40;;;;;;5052954;28;20435;-73
2022/08/24 04:50:49;;;;;;;1.30;1.30;;;19.40;42.50;;;;;;5052704;28;20185;-73
2022/08/24 04:53:16;;;;;;;1.30;1.10;;;19.50;42.90;;;;;;5050420;28;20444;-73
2022/08/24 04:55:48;;;;;;;1.30;1.10;;;19.60;42.50;;;;;;5052691;28;20178;-73
2022/08/24 04:58:16;;;;;;;1.30;1.20;;;19.80;41.50;;;;;;5051911;28;21046;-73
2022/08/24 05:00:43;;;;;;;1.30;1.20;;;19.80;41.50;;;;;;5052499;28;20450;-73
2022/08/24 05:03:10;;;;;;;1.30;1.20;;;19.80;41.50;;;;;;5048970;28;20440;-73
2022/08/24 05:05:43;;;;;;;1.30;1.17;;;19.80;42.30;;;;;;5052607;28;20903;-73
2022/08/24 05:08:10;;;;;;;1.30;1.30;;;19.70;42.20;;;;;;5052628;28;20826;-73
2022/08/24 05:10:40;;;;;;;1.30;1.30;;;19.70;42.20;;;;;;5051215;28;20539;-73
2022/08/24 05:13:06;;;;;;;1.30;1.20;;;19.80;42.70;;;;;;5051328;28;20959;-73
2022/08/24 05:15:33;;;;;;;1.30;1.20;;;22.30;44.50;;;;;;5052298;28;20501;-73
2022/08/24 05:17:59;;;;;;;1.30;1.30;;;19.90;43.20;;;;;;5052586;28;20419;-73
2022/08/24 05:20:26;;;;;;;1.30;1.23;;;20.00;43.40;;;;;;5051739;28;20455;-73
2022/08/24 05:22:52;;;;;;;1.30;1.10;;;19.90;43.60;;;;;;5050847;28;20923;-73
2022/08/24 05:25:18;;;;;;;1.30;1.20;;;20.00;43.00;;;;;;5052279;28;20416;-73
2022/08/24 05:27:44;;;;;;;1.30;1.27;;;20.00;39.80;;;;;;5051075;28;20478;-73
2022/08/24 05:30:10;;;;;;;1.30;1.20;;;19.50;41.20;;;;;;5051946;28;20434;-73
2022/08/24 05:32:37;;;;;;;1.30;1.20;;;19.50;41.50;;;;;;5051800;28;20251;-73
2022/08/24 05:35:03;;;;;;;1.30;1.20;;;19.70;41.80;;;;;;5051412;28;20446;-73
2022/08/24 05:37:30;;;;;;;1.30;1.10;;;19.90;41.50;;;;;;5048944;28;20436;-73
2022/08/24 05:39:56;;;;;;;1.30;1.20;;;20.30;40.70;;;;;;5047795;28;20438;-73
2022/08/24 05:42:21;;;;;;;1.30;1.10;;;20.40;39.60;;;;;;5051710;28;20417;-73
2022/08/24 05:44:47;;;;;;;1.30;1.20;;;20.50;40.20;;;;;;5051352;28;20209;-73
2022/08/24 05:47:13;;;;;;;1.30;1.30;;;20.50;39.00;;;;;;5051891;28;20233;-73
2022/08/24 05:49:39;;;;;;;1.30;1.20;;;20.70;40.20;;;;;;5050695;28;20907;-73
2022/08/24 05:52:04;;;;;;;1.30;1.30;;;20.80;38.70;;;;;;5051063;28;20184;-73
2022/08/24 05:54:30;;;;;;;1.30;1.10;;;20.90;36.90;;;;;;5052140;28;20173;-73
2022/08/24 05:57:00;;;;;;;1.30;1.13;;;21.20;36.30;;;;;;5051760;28;20181;-73
2022/08/24 05:59:26;;;;;;;1.30;1.20;;;21.10;35.80;;;;;;5051114;28;20180;-73
2022/08/24 06:01:52;;;;;;;1.30;1.17;;;21.00;35.80;;;;;;5050543;28;20952;-73
2022/08/24 06:04:18;;;;;;;1.30;1.30;;;20.80;35.40;;;;;;5051431;28;20777;-73
2022/08/24 06:06:44;;;;;;;1.30;1.20;;;20.70;36.90;;;;;;5048937;28;20662;-73
2022/08/24 06:09:10;;;;;;;1.30;1.30;;;20.40;38.80;;;;;;5051605;28;20443;-73
2022/08/24 06:11:38;;;;;;;1.30;1.20;;;20.90;37.90;;;;;;5050558;28;20266;-73
2022/08/24 06:14:10;;;;;;;1.30;1.30;;;20.40;37.90;;;;;;5049617;28;20437;-73
2022/08/24 06:16:38;;;;;;;1.30;1.30;;;20.20;39.50;;;;;;5049815;28;20406;-73
2022/08/24 06:19:05;;;;;;;1.30;1.20;;;20.50;38.50;;;;;;5048340;28;20530;-73
2022/08/24 06:21:31;;;;;;;1.30;1.13;;;20.60;37.50;;;;;;5047536;28;20518;-73
2022/08/24 06:23:58;;;;;;;1.30;1.23;;;20.90;37.00;;;;;;5050483;28;20468;-73
2022/08/24 06:29:09;;;;;;;1.30;1.20;;;20.90;37.30;;;;;;5051465;28;20498;-73
2022/08/24 06:31:37;;;;;;;1.30;1.20;;;21.30;38.20;;;;;;5050846;28;20828;-73
2022/08/24 06:34:03;;;;;;;1.30;1.20;;;21.00;36.30;;;;;;5050953;28;20410;-73
2022/08/24 06:36:28;;;;;;;1.30;1.23;;;21.20;36.90;;;;;;5043169;28;20528;-75
2022/08/24 06:38:54;;;;;;;1.30;1.20;;;20.90;36.20;;;;;;5046364;28;20673;-73
2022/08/24 06:41:20;;;;;;;1.30;1.30;;;20.60;37.40;;;;;;5049194;28;20207;-73
2022/08/24 06:43:46;;;;;;;1.30;1.20;;;20.70;39.30;;;;;;5048489;28;20232;-73
2022/08/24 06:46:12;;;;;;;1.30;1.20;;;20.80;38.40;;;;;;5049519;28;20978;-73
2022/08/24 06:48:38;;;;;;;1.30;1.20;;;21.30;38.30;;;;;;5049391;28;20233;-73
2022/08/24 06:51:10;;;;;;;1.30;1.13;;;21.70;38.00;;;;;;5050940;28;20905;-73
2022/08/24 06:53:36;;;;;;;1.30;1.20;;;22.00;36.70;;;;;;5050816;28;20195;-73
2022/08/24 06:56:01;;;;;;;1.30;1.20;;;21.70;35.30;;;;;;5051296;28;20431;-73
2022/08/24 06:58:27;;;;;;;1.30;1.10;;;21.40;35.40;;;;;;5049029;28;20526;-73
2022/08/24 07:00:55;;;;;;;1.50;1.40;;;21.60;35.80;;;;;;5050701;28;20273;-73
2022/08/24 07:03:21;;;;;;;1.27;1.10;;;21.50;35.90;;;;;;5050964;28;20540;-73
2022/08/24 07:05:54;;;;;;;1.30;1.23;;;21.40;36.00;;;;;;5033455;28;20783;-73
2022/08/24 07:08:21;;;;;;;1.30;1.30;;;21.10;36.40;;;;;;5048452;28;20455;-73
2022/08/24 07:10:46;;;;;;;1.30;1.20;;;21.40;36.20;;;;;;5050723;28;20429;-73
2022/08/24 07:13:13;;;;;;;1.30;1.17;;;21.40;36.30;;;;;;5044692;28;21194;-76
2022/08/24 07:15:40;;;;;;;1.30;1.20;;;21.60;35.60;;;;;;5045257;28;20175;-74
2022/08/24 07:18:09;;;;;;;1.30;1.20;;;21.70;35.20;;;;;;5045887;28;20435;-73
2022/08/24 07:20:35;;;;;;;1.30;1.20;;;21.60;35.80;;;;;;5044530;28;20485;-73
2022/08/24 07:23:02;;;;;;;1.30;1.20;;;21.20;37.40;;;;;;5045878;28;20475;-73
2022/08/24 07:25:30;;;;;;;1.30;1.20;;;21.40;36.40;;;;;;5047312;28;20445;-74
2022/08/24 07:27:56;;;;;;;1.30;1.10;;;21.70;35.60;;;;;;5047494;28;20460;-73
2022/08/24 07:30:21;;;;;;;1.30;1.20;;;21.60;35.80;;;;;;5046790;28;20966;-74
2022/08/24 07:32:47;;;;;;;1.30;1.30;;;21.40;36.00;;;;;;5046804;28;20208;-74
2022/08/24 07:35:13;;;;;;;1.30;1.20;;;18.60;33.20;;;;;;5044036;28;20184;-72
2022/08/24 07:37:38;;;;;;;1.30;1.13;;;21.80;35.90;;;;;;5047372;28;20216;-74
2022/08/24 07:40:04;;;;;;;1.30;1.20;;;22.00;35.10;;;;;;5049932;28;20255;-73
2022/08/24 07:42:30;;;;;;;1.30;1.20;;;22.30;34.00;;;;;;5044481;28;20548;-74
2022/08/24 07:44:56;;;;;;;1.30;1.20;;;22.20;33.70;;;;;;5046390;28;20432;-73
2022/08/24 07:47:21;;;;;;;1.30;1.20;;;22.20;34.20;;;;;;5048447;28;20197;-73
2022/08/24 07:49:48;;;;;;;1.30;1.30;;;22.20;34.50;;;;;;5044025;28;20679;-74
2022/08/24 07:52:14;;;;;;;1.30;1.10;;;22.00;35.00;;;;;;5047090;28;20179;-72
2022/08/24 07:54:39;;;;;;;1.30;1.30;;;22.10;35.40;;;;;;5053721;28;20455;-74
2022/08/24 07:57:05;;;;;;;1.30;1.10;;;22.50;34.20;;;;;;5052241;28;20437;-74
2022/08/24 07:59:32;;;;;;;1.30;1.20;;;23.00;34.10;;;;;;5048299;28;20660;-72
2022/08/24 08:01:58;;;;;;;1.30;1.20;;;22.60;30.80;;;;;;5052264;28;20539;-74
2022/08/24 08:04:24;;;;;;;1.30;1.20;;;22.80;31.10;;;;;;5051774;28;20426;-75
2022/08/24 08:06:51;;;;;;;1.30;1.20;;;23.50;30.50;;;;;;5050615;28;20464;-74
2022/08/24 08:09:17;;;;;;;1.30;1.20;;;23.50;30.40;;;;;;5046943;28;20945;-74
2022/08/24 08:11:43;;;;;;;1.30;1.20;;;23.20;30.00;;;;;;5050032;28;20445;-74
2022/08/24 08:14:09;;;;;;;1.30;1.27;;;23.30;31.20;;;;;;5052540;28;20183;-74
2022/08/24 08:16:35;;;;;;;1.30;1.20;;;23.90;29.40;;;;;;5053080;28;20180;-73
2022/08/24 08:19:00;;;;;;;1.30;1.30;;;23.20;31.10;;;;;;5051012;28;20847;-73
2022/08/24 08:24:17;;;;;;;1.30;1.20;;;23.10;32.50;;;;;;5051692;28;20202;-75
2022/08/24 08:26:45;;;;;;;1.30;1.10;;;23.50;31.70;;;;;;5050992;28;20807;-74
2022/08/24 08:29:12;;;;;;;1.30;1.23;;;24.00;31.00;;;;;;5048858;28;20434;-74
2022/08/24 08:31:39;;;;;;;1.30;1.20;;;23.90;31.10;;;;;;5049927;28;20522;-74
2022/08/24 08:34:06;;;;;;;1.30;1.23;;;24.30;30.80;;;;;;5050979;28;20455;-74
2022/08/24 08:36:32;;;;;;;1.20;1.20;;;24.60;30.00;;;;;;5051142;28;20497;-74
2022/08/24 08:38:58;;;;;;;1.30;1.10;;;24.80;30.00;;;;;;5035509;28;21039;-74
2022/08/24 08:42:01;;;;;;;1.30;1.20;;;24.90;29.50;;;;;;5049175;28;20453;-74
2022/08/24 08:45:00;;;;;;;1.30;1.20;;;24.80;28.70;;;;;;5045473;28;20443;-74
2022/08/24 08:48:07;;;;;;;1.30;1.30;;;25.10;29.60;;;;;;5049420;28;20490;-76
2022/08/24 08:51:09;;;;;;;1.30;1.20;;;25.60;27.20;;;;;;4975738;28;20461;-79
2022/08/24 08:53:46;;;;;;;1.30;1.10;;;25.80;26.80;;;;;;4949033;28;20534;-74
2022/08/24 08:56:51;;;;;;;1.20;1.10;;;26.10;27.10;;;;;;4954566;28;20433;-77
2022/08/24 08:59:37;;;;;;;1.23;1.20;;;26.40;27.20;;;;;;4960600;28;20450;-74
2022/08/24 09:02:41;;;;;;;1.30;1.13;;;26.60;26.40;;;;;;4950798;28;20463;-73
2022/08/24 09:05:31;;;;;;;1.27;1.20;;;26.40;27.00;;;;;;4927366;28;20438;-73
2022/08/24 09:08:27;;;;;;;1.27;1.20;;;26.30;26.60;;;;;;4957270;28;20461;-76
2022/08/24 09:11:04;;;;;;;1.20;1.10;;;26.50;27.10;;;;;;4944880;28;20469;-77
2022/08/24 09:13:53;;;;;;;1.20;1.13;;;26.70;26.50;;;;;;4960284;28;20461;-73
2022/08/24 09:16:24;;;;;;;1.20;1.20;;;27.10;26.20;;;;;;4954872;28;20434;-74
2022/08/24 09:19:03;;;;;;;1.30;1.20;;;27.20;26.10;;;;;;4952571;28;20434;-74
2022/08/24 09:21:32;;;;;;;1.20;1.20;;;27.50;25.40;;;;;;4945248;28;20449;-74
2022/08/24 09:24:24;;;;;;;1.20;1.13;;;27.30;24.20;;;;;;4974329;28;20435;-74
2022/08/24 09:27:15;;;;;;;1.20;1.20;;;27.30;23.00;;;;;;5027177;28;20493;-75
2022/08/24 09:29:55;;;;;;;1.20;1.10;;;27.30;24.10;;;;;;5018818;28;20453;-77
2022/08/24 09:32:59;;;;;;;1.20;1.20;;;27.50;24.30;;;;;;5048065;28;20782;-77
2022/08/24 09:35:34;;;;;;;1.20;1.10;;;27.80;23.00;;;;;;5006489;28;20462;-76
2022/08/24 09:38:22;;;;;;;1.30;1.27;;;28.10;22.60;;;;;;5011535;28;20608;-73
2022/08/24 09:41:15;;;;;;;1.20;1.17;;;28.10;21.20;;;;;;5009615;28;20443;-73
2022/08/24 09:44:13;;;;;;;1.30;1.20;;;28.10;20.50;;;;;;5005823;28;20526;-77
2022/08/24 09:46:57;;;;;;;1.20;1.10;;;28.50;20.20;;;;;;5009942;28;20497;-76
2022/08/24 09:49:47;;;;;;;1.30;1.20;;;28.80;20.40;;;;;;5009858;28;20461;-77
2022/08/24 09:52:31;;;;;;;1.20;1.10;;;28.70;18.10;;;;;;5016066;28;20435;-78
2022/08/24 09:55:28;;;;;;;1.20;1.20;;;28.70;19.90;;;;;;5002069;28;20514;-78
2022/08/24 09:58:15;;;;;;;1.30;1.20;;;28.70;19.90;;;;;;4971122;28;20434;-77
2022/08/24 10:00:49;;;;;;;1.20;1.17;;;29.00;19.00;;;;;;4993174;28;20467;-78
2022/08/24 10:03:26;;;;;;;1.20;1.10;;;29.20;17.60;;;;;;5000654;28;20538;-76
2022/08/24 10:06:13;;;;;;;1.20;1.10;;;29.20;17.50;;;;;;5025064;28;20525;-78
2022/08/24 10:09:07;;;;;;;1.30;1.20;;;28.90;17.90;;;;;;5046455;28;20949;-73
2022/08/24 10:12:05;;;;;;;1.30;1.20;;;28.10;18.90;;;;;;5040922;28;20455;-74
2022/08/24 10:14:40;;;;;;;1.20;1.10;;;28.70;20.70;;;;;;5037233;28;20434;-74
2022/08/24 10:17:15;;;;;;;1.20;1.10;;;28.80;17.90;;;;;;5051159;28;20429;-74
2022/08/24 10:19:52;;;;;;;1.20;1.07;;;28.80;19.90;;;;;;5046613;28;20446;-74
2022/08/24 10:22:36;;;;;;;1.27;1.20;;;29.10;18.10;;;;;;5047447;28;20936;-74
2022/08/24 10:25:07;;;;;;;1.20;1.10;;;29.50;17.10;;;;;;5047557;28;20452;-73
2022/08/24 10:28:01;;;;;;;1.20;1.20;;;28.90;15.60;;;;;;5047555;28;20446;-73
2022/08/24 10:31:04;;;;;;;1.20;1.10;;;29.30;16.70;;;;;;5031586;28;20430;-73
2022/08/24 10:33:58;;;;;;;1.20;1.10;;;29.80;16.50;;;;;;5032579;28;20517;-73
2022/08/24 10:36:29;;;;;;;1.20;1.10;;;29.90;16.70;;;;;;5031281;28;21004;-73
2022/08/24 10:46:10;;;;;;;1.20;1.10;;;30.50;15.30;;;;;;5049975;28;20781;-74
2022/08/24 10:48:53;;;;;;;1.20;1.10;;;30.70;15.90;;;;;;4989706;28;20429;-74
2022/08/24 10:51:52;;;;;;;1.20;1.10;;;30.80;15.40;;;;;;4989330;28;20425;-74
2022/08/24 10:54:19;;;;;;;1.20;1.10;;;31.00;15.50;;;;;;4983927;28;20456;-74
2022/08/24 10:57:04;;;;;;;1.20;1.10;;;31.30;15.30;;;;;;4970058;28;20506;-74
2022/08/24 10:59:56;;;;;;;1.20;1.10;;;31.30;14.30;;;;;;4970001;28;20433;-74
2022/08/24 11:02:37;;;;;;;1.20;1.10;;;31.10;13.90;;;;;;4969770;28;20409;-74
2022/08/24 11:05:09;;;;;;;1.20;1.00;;;31.10;16.00;;;;;;4970456;28;20442;-73
2022/08/24 11:07:37;;;;;;;1.20;1.10;;;31.30;17.30;;;;;;4980408;28;20589;-73
2022/08/24 11:10:07;;;;;;;1.20;1.10;;;30.60;15.70;;;;;;4968968;28;20537;-74
2022/08/24 11:12:35;;;;;;;1.20;1.10;;;31.00;15.80;;;;;;4984640;28;20983;-74
2022/08/24 11:15:15;;;;;;;1.20;1.00;;;31.50;15.00;;;;;;4967288;28;20533;-73
2022/08/24 11:17:56;;;;;;;1.20;1.00;;;31.90;14.50;;;;;;4974099;28;20436;-73
2022/08/24 11:20:39;;;;;;;1.20;1.10;;;32.20;13.30;;;;;;5043014;28;21019;-73
2022/08/24 11:23:07;;;;;;;1.20;1.00;;;32.40;14.90;;;;;;5048528;28;20944;-74
2022/08/24 11:25:36;;;;;;;1.20;1.00;;;33.10;12.30;;;;;;5048656;28;20422;-74
2022/08/24 11:28:26;;;;;;;1.20;1.00;;;34.40;10.30;;;;;;5051976;28;20457;-75
2022/08/24 11:30:52;;;;;;;1.20;0.90;;;35.80;11.10;;;;;;5034822;28;20937;-73
2022/08/24 11:33:44;;;;;;;1.20;0.90;;;36.70;9.50;;;;;;5054069;28;20463;-73
2022/08/24 11:36:24;;;;;;;1.20;0.90;;;36.50;7.60;;;;;;5053929;28;20180;-73
2022/08/24 11:39:21;;;;;;;1.20;0.90;;;35.20;8.80;;;;;;5051271;28;20521;-73
2022/08/24 11:41:58;;;;;;;1.20;0.90;;;36.10;8.70;;;;;;5048560;28;20418;-72
2022/08/24 11:44:27;;;;;;;1.20;0.90;;;37.00;9.60;;;;;;5050741;28;20874;-73
2022/08/24 11:47:12;;;;;;;1.20;0.90;;;37.00;7.20;;;;;;5054274;28;20800;-73
2022/08/24 11:49:54;;;;;;;1.20;0.80;;;38.00;8.50;;;;;;5049100;28;20442;-73
2022/08/24 11:52:46;;;;;;;1.20;0.90;;;39.30;6.30;;;;;;5052319;28;20956;-73
2022/08/24 11:55:37;;;;;;;1.20;0.90;;;39.20;4.10;;;;;;5051354;28;20983;-73
2022/08/24 11:58:10;;;;;;;1.20;0.90;;;39.90;3.70;;;;;;5050905;28;20425;-73
2022/08/24 12:01:00;;;;;;;1.20;0.90;;;40.00;3.90;;;;;;5054045;28;20853;-73
2022/08/24 12:03:44;;;;;;;1.20;0.80;;;39.70;4.30;;;;;;5052485;28;20431;-75
2022/08/24 12:06:15;;;;;;;1.20;0.90;;;40.00;4.50;;;;;;5052604;28;20525;-72
2022/08/24 12:08:51;;;;;;;1.20;0.90;;;40.80;3.20;;;;;;5049418;28;20443;-72
2022/08/24 12:11:22;;;;;;;1.20;0.90;;;41.10;3.00;;;;;;5052845;28;20548;-73
2022/08/24 12:14:07;;;;;;;1.20;0.90;;;41.20;1.50;;;;;;5050768;28;20430;-71
2022/08/24 12:16:37;;;;;;;1.20;0.80;;;39.80;3.10;;;;;;5050200;28;20437;-72
2022/08/24 12:19:14;;;;;;;1.20;0.90;;;38.40;3.70;;;;;;5049662;28;21017;-72
2022/08/24 12:21:44;;;;;;;1.20;0.90;;;39.80;3.20;;;;;;5049372;28;20456;-74
2022/08/24 12:24:41;;;;;;;1.20;0.83;;;40.50;2.90;;;;;;5053282;28;20433;-73
2022/08/24 12:27:12;;;;;;;1.20;0.90;;;41.20;2.30;;;;;;5023524;28;20568;-72
2022/08/24 12:29:54;;;;;;;1.20;0.90;;;40.70;1.90;;;;;;5026984;28;20460;-72
2022/08/24 12:32:29;;;;;;;1.20;0.83;;;40.20;3.70;;;;;;5011242;28;20436;-73
2022/08/24 12:35:14;;;;;;;1.20;0.80;;;40.50;3.30;;;;;;5026291;28;20417;-73
2022/08/24 12:37:48;;;;;;;1.20;0.90;;;39.80;4.00;;;;;;5010638;28;20456;-73
2022/08/24 12:40:38;;;;;;;1.20;0.83;;;39.90;3.90;;;;;;5012336;28;20870;-73
2022/08/24 12:43:22;;;;;;;1.20;0.90;;;39.80;4.60;;;;;;5023055;28;20439;-73
2022/08/24 12:45:48;;;;;;;1.20;0.90;;;39.10;4.10;;;;;;5013464;28;20454;-73
2022/08/24 12:48:28;;;;;;;1.20;0.87;;;37.90;5.40;;;;;;5015854;28;20482;-73
2022/08/24 12:51:19;;;;;;;1.20;0.90;;;37.80;5.90;;;;;;5027131;28;21112;-73
2022/08/24 12:53:58;;;;;;;1.20;0.90;;;37.30;5.80;;;;;;5010581;28;20400;-73
2022/08/24 12:56:48;;;;;;;1.20;1.00;;;36.10;7.90;;;;;;5013759;28;20419;-73
2022/08/24 12:59:29;;;;;;;1.20;0.90;;;35.50;7.10;;;;;;5028751;28;20414;-73
2022/08/24 13:02:03;;;;;;;1.20;1.00;;;35.10;9.00;;;;;;5022069;28;20448;-73
2022/08/24 13:04:35;;;;;;;1.20;0.90;;;35.40;9.40;;;;;;5039563;28;20446;-73
2022/08/24 13:07:10;;;;;;;1.20;0.90;;;35.10;11.30;;;;;;5050405;28;20477;-73
2022/08/24 13:09:44;;;;;;;1.20;1.00;;;34.60;11.20;;;;;;5052846;28;20434;-73
2022/08/24 13:12:42;;;;;;;1.20;0.90;;;34.80;8.90;;;;;;5050840;28;20430;-73
2022/08/24 13:15:20;;;;;;;1.20;0.90;;;34.90;10.90;;;;;;5038289;28;20861;-73
2022/08/24 13:17:47;;;;;;;1.20;0.90;;;34.80;11.00;;;;;;5052148;28;20412;-73
2022/08/24 13:20:33;;;;;;;1.20;1.00;;;35.00;10.70;;;;;;5051466;28;20849;-73
2022/08/24 13:23:14;;;;;;;1.20;1.00;;;35.20;9.70;;;;;;5049620;28;20492;-73
2022/08/24 13:25:50;;;;;;;1.20;1.00;;;35.40;9.60;;;;;;5052185;28;20443;-72
2022/08/24 13:28:44;;;;;;;1.20;0.90;;;35.30;10.60;;;;;;5042584;28;20477;-72